createdAt,value
2019-05-02T00:00:49.750Z,28.1
2019-05-02T00:02:49.830Z,26.8
2019-05-02T00:04:55.719Z,27.9
2019-05-02T00:06:50.375Z,27.9
2019-05-02T00:08:50.342Z,28.6
2019-05-02T00:10:50.452Z,27.8
2019-05-02T00:12:50.443Z,28.8
2019-05-02T00:14:50.544Z,28.9
2019-05-02T00:16:50.637Z,28.9
2019-05-02T00:18:49.646Z,29.1
2019-05-02T00:20:49.779Z,29.0
2019-05-02T00:22:53.438Z,29.3
2019-05-02T00:24:49.555Z,28.8
2019-05-02T00:26:49.712Z,28.8
2019-05-02T00:28:50.077Z,28.8
2019-05-02T00:30:50.201Z,28.4
2019-05-02T00:32:58.171Z,30.3
2019-05-02T00:34:50.027Z,30.0
2019-05-02T00:36:50.208Z,30.0
2019-05-02T00:38:50.356Z,29.7
2019-05-02T00:40:50.459Z,29.5
2019-05-02T00:42:58.130Z,29.7
2019-05-02T00:44:49.765Z,29.7
2019-05-02T00:46:49.894Z,30.0
2019-05-02T00:48:59.484Z,30.6
2019-05-02T00:50:52.485Z,30.6
2019-05-02T00:52:49.617Z,29.0
2019-05-02T00:54:49.665Z,29.0
2019-05-02T00:56:49.797Z,29.1
2019-05-02T00:58:49.894Z,30.1
2019-05-02T01:00:54.775Z,30.7
2019-05-02T01:02:49.865Z,30.5
2019-05-02T01:04:50.264Z,30.5
2019-05-02T01:06:50.903Z,30.1
2019-05-02T01:08:49.955Z,29.5
2019-05-02T01:10:56.713Z,30.2
2019-05-02T01:12:50.073Z,30.6
2019-05-02T01:14:50.090Z,30.6
2019-05-02T01:16:56.237Z,31.5
2019-05-02T01:18:50.487Z,30.7
2019-05-02T01:20:49.657Z,30.7
2019-05-02T01:22:53.617Z,31.5
2019-05-02T01:24:49.812Z,31.2
2019-05-02T01:26:50.088Z,31.5
2019-05-02T01:28:55.691Z,31.1
2019-05-02T01:30:49.995Z,31.0
2019-05-02T01:32:50.108Z,31.0
2019-05-02T01:34:56.369Z,30.1
2019-05-02T01:36:49.795Z,29.4
2019-05-02T01:38:49.780Z,30.4
2019-05-02T01:40:54.729Z,29.5
2019-05-02T01:42:51.224Z,29.5
2019-05-02T01:44:50.296Z,29.9
2019-05-02T01:46:58.695Z,29.9
2019-05-02T01:48:50.015Z,30.2
2019-05-02T01:50:50.088Z,29.4
2019-05-02T01:52:58.390Z,29.4
2019-05-02T01:54:50.162Z,30.6
2019-05-02T01:56:50.473Z,31.9
2019-05-02T01:58:57.615Z,31.8
2019-05-02T02:00:49.904Z,31.8
2019-05-02T02:02:49.982Z,31.2
2019-05-02T02:04:56.762Z,31.2
2019-05-02T02:06:50.316Z,31.2
2019-05-02T02:08:49.672Z,32.3
2019-05-02T02:10:55.863Z,30.7
2019-05-02T02:13:04.576Z,30.7
2019-05-02T02:14:55.494Z,30.8
2019-05-02T02:16:49.777Z,31.2
2019-05-02T02:18:49.780Z,30.1
2019-05-02T02:20:50.420Z,31.2
2019-05-02T02:22:50.453Z,31.2
2019-05-02T02:24:49.519Z,32.7
2019-05-02T02:26:50.046Z,30.1
2019-05-02T02:28:50.085Z,31.9
2019-05-02T02:30:50.200Z,31.9
2019-05-02T02:32:50.296Z,31.5
2019-05-02T02:34:49.710Z,31.2
2019-05-02T02:36:49.930Z,30.8
2019-05-02T02:38:50.090Z,32.2
2019-05-02T02:40:50.206Z,32.2
2019-05-02T02:42:50.336Z,35.3
2019-05-02T02:44:50.361Z,34.6
2019-05-02T02:46:50.355Z,34.5
2019-05-02T02:48:50.454Z,33.9
2019-05-02T02:50:49.717Z,33.9
2019-05-02T02:52:49.752Z,33.5
2019-05-02T02:54:49.921Z,32.9
2019-05-02T02:56:50.115Z,31.9
2019-05-02T02:58:50.299Z,32.8
2019-05-02T03:00:50.336Z,32.8
2019-05-02T03:02:50.395Z,31.5
2019-05-02T03:04:49.921Z,32.0
2019-05-02T03:06:50.142Z,32.1
2019-05-02T03:08:50.201Z,32.3
2019-05-02T03:10:50.260Z,32.3
2019-05-02T03:12:50.339Z,33.2
2019-05-02T03:14:50.377Z,32.7
2019-05-02T03:16:49.878Z,33.6
2019-05-02T03:18:49.985Z,32.2
2019-05-02T03:20:50.021Z,32.2
2019-05-02T03:22:50.206Z,32.9
2019-05-02T03:24:50.183Z,33.0
2019-05-02T03:26:57.784Z,32.6
2019-05-02T03:29:00.095Z,32.9
2019-05-02T03:30:49.863Z,32.9
2019-05-02T03:33:05.143Z,33.3
2019-05-02T03:34:54.408Z,33.5
2019-05-02T03:36:49.860Z,33.5
2019-05-02T03:38:49.897Z,32.2
2019-05-02T03:40:50.061Z,33.7
2019-05-02T03:42:50.122Z,33.1
2019-05-02T03:45:03.747Z,33.9
2019-05-02T03:47:01.789Z,35.3
2019-05-02T03:48:49.664Z,35.3
2019-05-02T03:50:49.796Z,32.8
2019-05-02T03:52:49.908Z,33.7
2019-05-02T03:54:52.834Z,34.6
2019-05-02T03:56:53.235Z,34.6
2019-05-02T03:58:58.335Z,33.7
2019-05-02T04:01:01.458Z,33.8
2019-05-02T04:03:00.142Z,34.3
2019-05-02T04:09:00.172Z,34.5
2019-05-02T04:10:59.645Z,33.7
2019-05-02T04:12:58.518Z,35.3
2019-05-02T04:14:57.340Z,34.3
2019-05-02T04:16:57.327Z,34.3
2019-05-02T04:18:58.003Z,34.0
2019-05-02T04:20:52.218Z,32.7
2019-05-02T04:22:51.036Z,32.7
2019-05-02T04:24:56.579Z,33.9
2019-05-02T04:26:56.401Z,33.9
2019-05-02T04:28:53.652Z,33.3
2019-05-02T04:30:53.794Z,32.5
2019-05-02T04:32:56.111Z,33.8
2019-05-02T04:34:58.068Z,32.8
2019-05-02T04:37:03.333Z,32.8
2019-05-02T04:38:52.985Z,32.8
2019-05-02T04:40:50.133Z,31.8
2019-05-02T04:43:05.624Z,31.8
2019-05-02T04:45:17.259Z,31.8
2019-05-02T04:46:49.680Z,31.0
2019-05-02T04:48:53.226Z,30.8
2019-05-02T04:50:59.282Z,31.4
2019-05-02T04:52:54.261Z,29.8
2019-05-02T04:54:50.478Z,29.6
2019-05-02T04:56:55.510Z,29.6
2019-05-02T04:58:49.940Z,31.6
2019-05-02T05:00:59.176Z,31.0
2019-05-02T05:02:53.386Z,29.1
2019-05-02T05:04:49.957Z,29.2
2019-05-02T05:07:01.041Z,29.2
2019-05-02T05:08:50.241Z,30.6
2019-05-02T05:10:50.397Z,29.8
2019-05-02T05:12:50.389Z,29.1
2019-05-02T05:14:50.483Z,29.1
2019-05-02T05:16:56.026Z,28.3
2019-05-02T05:18:53.355Z,28.4
2019-05-02T05:20:54.389Z,28.1
2019-05-02T05:22:50.403Z,28.5
2019-05-02T05:24:50.428Z,28.5
2019-05-02T05:26:49.569Z,27.5
2019-05-02T05:28:50.557Z,27.5
2019-05-02T05:30:52.367Z,26.8
2019-05-02T05:32:49.562Z,26.8
2019-05-02T05:34:49.900Z,27.6
2019-05-02T05:36:49.641Z,27.0
2019-05-02T05:38:49.701Z,27.9
2019-05-02T05:40:50.443Z,29.2
2019-05-02T05:42:50.399Z,29.2
2019-05-02T05:44:50.496Z,28.4
2019-05-02T05:46:49.853Z,30.4
2019-05-02T05:48:49.962Z,30.0
2019-05-02T05:50:49.995Z,33.0
2019-05-02T05:52:52.152Z,33.0
2019-05-02T05:54:50.240Z,31.3
2019-05-02T05:56:50.394Z,32.6
2019-05-02T05:58:52.754Z,29.7
2019-05-02T06:00:56.427Z,30.8
2019-05-02T06:02:58.399Z,30.8
2019-05-02T06:04:51.984Z,31.5
2019-05-02T06:06:58.345Z,31.2
2019-05-02T06:08:55.382Z,31.0
2019-05-02T06:10:49.563Z,30.9
2019-05-02T06:12:49.532Z,30.9
2019-05-02T06:14:49.585Z,31.0
2019-05-02T06:16:53.152Z,29.3
2019-05-02T06:18:50.351Z,29.3
2019-05-02T06:20:50.427Z,30.0
2019-05-02T06:22:50.423Z,30.0
2019-05-02T06:24:52.097Z,29.7
2019-05-02T06:26:52.011Z,28.9
2019-05-02T06:28:50.006Z,31.5
2019-05-02T06:30:50.089Z,29.9
2019-05-02T06:32:56.545Z,29.9
2019-05-02T06:34:50.045Z,30.7
2019-05-02T06:36:50.281Z,29.5
2019-05-02T06:38:56.454Z,29.5
2019-05-02T06:40:49.899Z,28.7
2019-05-02T06:42:50.005Z,28.7
2019-05-02T06:44:50.027Z,28.6
2019-05-02T06:46:50.147Z,28.5
2019-05-02T06:48:53.563Z,27.1
2019-05-02T06:50:49.720Z,27.1
2019-05-02T06:52:49.731Z,26.5
2019-05-02T06:54:57.877Z,26.3
2019-05-02T06:56:50.311Z,25.2
2019-05-02T06:58:50.465Z,25.2
2019-05-02T07:00:59.014Z,25.1
2019-05-02T07:02:50.272Z,24.7
2019-05-02T07:04:55.979Z,24.0
2019-05-02T07:06:58.969Z,24.0
2019-05-02T07:08:50.647Z,25.0
2019-05-02T07:10:50.194Z,25.0
2019-05-02T07:13:09.375Z,23.6
2019-05-02T07:14:49.951Z,22.5
2019-05-02T07:16:56.339Z,23.2
2019-05-02T07:18:49.882Z,22.8
2019-05-02T07:20:49.964Z,22.8
2019-05-02T07:22:49.996Z,22.6
2019-05-02T07:24:50.115Z,22.1
2019-05-02T07:26:56.780Z,23.4
2019-05-02T07:28:50.197Z,23.1
2019-05-02T07:30:50.201Z,23.1
2019-05-02T07:32:50.283Z,22.1
2019-05-02T07:34:49.746Z,21.3
2019-05-02T07:36:49.860Z,21.3
2019-05-02T07:38:49.896Z,21.3
2019-05-02T07:40:54.300Z,21.2
2019-05-02T07:42:50.348Z,22.1
2019-05-02T07:44:50.419Z,22.1
2019-05-02T07:46:53.727Z,22.1
2019-05-02T07:48:56.507Z,22.5
2019-05-02T07:50:50.366Z,21.3
2019-05-02T07:52:49.750Z,21.1
2019-05-02T07:54:49.760Z,21.4
2019-05-02T07:56:54.625Z,21.9
2019-05-02T07:58:49.846Z,21.9
2019-05-02T08:00:49.866Z,20.6
2019-05-02T08:02:49.853Z,21.3
2019-05-02T08:04:50.228Z,21.3
2019-05-02T08:06:49.523Z,22.2
2019-05-02T08:08:49.651Z,22.2
2019-05-02T08:11:01.977Z,21.8
2019-05-02T08:12:49.959Z,21.2
2019-05-02T08:14:50.003Z,20.7
2019-05-02T08:16:50.249Z,20.7
2019-05-02T08:18:50.329Z,21.3
2019-05-02T08:20:55.906Z,21.7
2019-05-02T08:22:50.873Z,21.7
2019-05-02T08:24:50.003Z,20.0
2019-05-02T08:26:59.500Z,20.0
2019-05-02T08:28:53.244Z,20.6
2019-05-02T08:30:50.345Z,20.3
2019-05-02T08:32:50.355Z,21.0
2019-05-02T08:34:53.536Z,21.2
2019-05-02T08:36:49.818Z,21.2
2019-05-02T08:38:55.385Z,21.3
2019-05-02T08:40:50.513Z,21.7
2019-05-02T08:42:49.547Z,21.4
2019-05-02T08:44:52.493Z,21.4
2019-05-02T08:46:53.239Z,22.1
2019-05-02T08:48:51.015Z,22.4
2019-05-02T08:50:50.161Z,22.2
2019-05-02T08:52:50.193Z,22.8
2019-05-02T08:54:50.191Z,23.9
2019-05-02T08:56:58.742Z,23.9
2019-05-02T08:58:51.238Z,23.3
2019-05-02T09:00:50.333Z,23.3
2019-05-02T09:02:50.360Z,24.0
2019-05-02T09:04:59.130Z,23.5
2019-05-02T09:06:58.483Z,23.5
2019-05-02T09:08:52.907Z,24.3
2019-05-02T09:10:50.008Z,24.4
2019-05-02T09:12:52.180Z,23.8
2019-05-02T09:14:52.257Z,23.8
2019-05-02T09:16:52.473Z,24.1
2019-05-02T09:18:54.133Z,24.6
2019-05-02T09:20:56.313Z,25.4
2019-05-02T09:22:56.027Z,25.4
2019-05-02T09:24:52.118Z,24.8
2019-05-02T09:26:52.070Z,24.8
2019-05-02T09:28:56.188Z,24.5
2019-05-02T09:30:52.554Z,25.0
2019-05-02T09:32:49.530Z,24.8
2019-05-02T09:34:52.048Z,24.8
2019-05-02T09:36:50.168Z,22.8
2019-05-02T09:38:57.635Z,24.1
2019-05-02T09:40:56.129Z,23.1
2019-05-02T09:42:58.492Z,23.1
2019-05-02T09:44:57.088Z,22.8
2019-05-02T09:46:57.089Z,24.4
2019-05-02T09:48:52.127Z,23.0
2019-05-02T09:50:50.175Z,20.7
2019-05-02T09:52:52.572Z,20.7
2019-05-02T09:54:49.528Z,22.1
2019-05-02T09:56:52.080Z,22.5
2019-05-02T09:59:01.932Z,22.0
2019-05-02T10:00:49.719Z,21.5
2019-05-02T10:02:49.783Z,21.5
2019-05-02T10:04:52.485Z,22.4
2019-05-02T10:06:52.191Z,22.8
2019-05-02T10:08:51.547Z,21.6
2019-05-02T10:10:52.327Z,21.7
2019-05-02T10:12:52.217Z,21.7
2019-05-02T10:14:50.255Z,20.7
2019-05-02T10:16:49.969Z,19.3
2019-05-02T10:18:52.466Z,20.3
2019-05-02T10:20:49.682Z,19.8
2019-05-02T10:22:49.691Z,19.8
2019-05-02T10:24:52.078Z,19.7
2019-05-02T10:26:55.058Z,20.9
2019-05-02T10:28:53.418Z,21.1
2019-05-02T10:30:56.395Z,21.3
2019-05-02T10:32:57.322Z,21.3
2019-05-02T10:34:56.736Z,20.8
2019-05-02T10:36:58.490Z,21.3
2019-05-02T10:38:58.994Z,21.1
2019-05-02T10:41:01.417Z,21.1
2019-05-02T10:42:52.365Z,19.3
2019-05-02T10:44:52.255Z,19.3
2019-05-02T10:46:49.554Z,18.0
2019-05-02T10:48:52.641Z,16.4
2019-05-02T10:50:49.718Z,18.0
2019-05-02T10:52:49.687Z,18.0
2019-05-02T10:54:49.742Z,17.1
2019-05-02T10:56:51.931Z,18.6
2019-05-02T10:58:52.423Z,17.2
2019-05-02T11:00:49.559Z,17.5
2019-05-02T11:02:49.624Z,17.5
2019-05-02T11:04:49.902Z,17.0
2019-05-02T11:06:51.450Z,18.2
2019-05-02T11:08:49.944Z,18.1
2019-05-02T11:10:49.608Z,18.1
2019-05-02T11:12:49.627Z,16.7
2019-05-02T11:14:51.791Z,16.1
2019-05-02T11:16:49.937Z,16.8
2019-05-02T11:18:52.756Z,17.7
2019-05-02T11:20:49.852Z,17.7
2019-05-02T11:22:54.596Z,17.1
2019-05-02T11:24:49.752Z,16.7
2019-05-02T11:26:49.871Z,18.3
2019-05-02T11:28:52.306Z,18.3
2019-05-02T11:30:52.628Z,21.1
2019-05-02T11:32:52.278Z,21.2
2019-05-02T11:34:49.758Z,19.5
2019-05-02T11:36:50.003Z,19.0
2019-05-02T11:39:04.973Z,19.8
2019-05-02T11:40:49.779Z,19.8
2019-05-02T11:42:52.270Z,17.9
2019-05-02T11:44:52.484Z,17.6
2019-05-02T11:46:49.777Z,17.3
2019-05-02T11:48:58.718Z,17.3
2019-05-02T11:50:52.241Z,18.7
2019-05-02T11:52:52.499Z,17.6
2019-05-02T11:54:52.276Z,17.3
2019-05-02T11:56:53.444Z,16.6
2019-05-02T11:58:50.433Z,16.6
2019-05-02T12:00:52.075Z,14.9
2019-05-02T12:02:58.004Z,14.8
2019-05-02T12:04:55.490Z,16.2
2019-05-02T12:07:01.189Z,16.2
2019-05-02T12:08:49.854Z,18.9
2019-05-02T12:10:52.144Z,17.0
2019-05-02T12:12:52.472Z,15.5
2019-05-02T12:14:49.823Z,16.8
2019-05-02T12:16:49.999Z,17.7
2019-05-02T12:18:50.098Z,17.7
2019-05-02T12:20:52.280Z,17.6
2019-05-02T12:22:50.331Z,18.1
2019-05-02T12:24:52.051Z,17.2
2019-05-02T12:26:50.269Z,17.2
2019-05-02T12:28:49.877Z,17.7
2019-05-02T12:30:52.109Z,20.6
2019-05-02T12:32:50.126Z,19.4
2019-05-02T12:34:49.635Z,19.4
2019-05-02T12:36:49.762Z,19.8
2019-05-02T12:38:50.103Z,20.3
2019-05-02T12:40:52.227Z,18.2
2019-05-02T12:42:50.322Z,17.4
2019-05-02T12:44:49.638Z,17.6
2019-05-02T12:46:51.952Z,17.6
2019-05-02T12:48:52.204Z,18.0
2019-05-02T12:50:50.310Z,17.4
2019-05-02T12:52:49.844Z,17.4
2019-05-02T12:54:49.588Z,16.1
2019-05-02T12:56:49.826Z,16.1
2019-05-02T12:58:49.894Z,16.1
2019-05-02T13:00:50.289Z,15.5
2019-05-02T13:02:49.821Z,15.5
2019-05-02T13:04:50.248Z,15.1
2019-05-02T13:06:49.736Z,15.1
2019-05-02T13:08:49.725Z,15.6
2019-05-02T13:11:02.001Z,13.0
2019-05-02T13:12:50.257Z,13.0
2019-05-02T13:14:50.223Z,11.9
2019-05-02T13:18:52.144Z,13.6
2019-05-02T13:20:50.156Z,16.6
2019-05-02T13:22:52.808Z,17.2
2019-05-02T13:24:56.151Z,17.2
2019-05-02T13:26:59.639Z,15.9
2019-05-02T13:28:51.796Z,17.3
2019-05-02T13:30:51.826Z,16.2
2019-05-02T13:32:57.798Z,16.2
2019-05-02T13:34:57.045Z,17.7
2019-05-02T13:36:52.100Z,18.4
2019-05-02T13:38:52.009Z,17.1
2019-05-02T13:40:51.893Z,17.7
2019-05-02T13:42:49.858Z,17.7
2019-05-02T13:44:52.465Z,16.6
2019-05-02T13:46:49.830Z,17.2
2019-05-02T13:48:49.867Z,17.2
2019-05-02T13:50:51.964Z,17.6
2019-05-02T13:52:57.953Z,17.6
2019-05-02T13:54:52.358Z,18.1
2019-05-02T13:56:53.140Z,18.3
2019-05-02T13:58:52.066Z,17.3
2019-05-02T14:00:50.152Z,17.3
2019-05-02T14:02:52.115Z,16.2
2019-05-02T14:04:52.290Z,14.8
2019-05-02T14:06:50.322Z,14.5
2019-05-02T14:08:49.954Z,14.9
2019-05-02T14:10:49.895Z,16.7
2019-05-02T14:12:49.975Z,16.7
2019-05-02T14:14:52.052Z,17.2
2019-05-02T14:16:50.231Z,16.7
2019-05-02T14:18:50.209Z,16.7
2019-05-02T14:20:50.277Z,16.7
2019-05-02T14:22:49.553Z,16.5
2019-05-02T14:24:51.367Z,16.4
2019-05-02T14:26:52.000Z,17.5
2019-05-02T14:28:49.791Z,17.5
2019-05-02T14:30:49.854Z,17.2
2019-05-02T14:32:52.487Z,17.2
2019-05-02T14:34:49.862Z,18.1
2019-05-02T14:36:57.370Z,18.2
2019-05-02T14:38:50.108Z,18.5
2019-05-02T14:40:52.200Z,18.3
2019-05-02T14:42:50.248Z,18.3
2019-05-02T14:45:08.030Z,19.1
2019-05-02T14:46:49.736Z,18.2
2019-05-02T14:48:52.508Z,17.2
2019-05-02T14:50:49.642Z,16.9
2019-05-02T14:52:51.747Z,16.9
2019-05-02T14:54:49.753Z,18.2
2019-05-02T14:56:52.360Z,17.4
2019-05-02T14:58:52.952Z,18.6
2019-05-02T15:00:49.966Z,18.6
2019-05-02T15:02:52.016Z,17.6
2019-05-02T15:04:52.533Z,16.5
2019-05-02T15:06:49.910Z,15.7
2019-05-02T15:08:52.151Z,15.7
2019-05-02T15:10:56.610Z,15.5
2019-05-02T15:12:59.405Z,15.7
2019-05-02T15:14:58.720Z,15.6
2019-05-02T15:16:58.133Z,15.3
2019-05-02T15:18:56.749Z,14.8
2019-05-02T15:20:52.226Z,14.8
2019-05-02T15:22:52.430Z,15.3
2019-05-02T15:24:50.388Z,16.6
2019-05-02T15:26:50.180Z,16.6
2019-05-02T15:28:52.220Z,16.4
2019-05-02T15:30:52.248Z,16.4
2019-05-02T15:32:52.230Z,16.5
2019-05-02T15:34:49.508Z,17.2
2019-05-02T15:36:49.744Z,16.2
2019-05-02T15:38:49.786Z,16.6
2019-05-02T15:40:53.881Z,16.6
2019-05-02T15:42:52.315Z,17.0
2019-05-02T15:44:49.760Z,17.0
2019-05-02T15:46:49.984Z,17.0
2019-05-02T15:48:52.127Z,17.5
2019-05-02T15:50:55.189Z,17.5
2019-05-02T15:52:49.752Z,17.7
2019-05-02T15:55:01.184Z,17.2
2019-05-02T15:57:00.868Z,16.8
2019-05-02T15:58:52.000Z,16.8
2019-05-02T16:00:52.105Z,17.2
2019-05-02T16:02:51.865Z,17.2
2019-05-02T16:04:52.363Z,17.2
2019-05-02T16:06:49.890Z,17.2
2019-05-02T16:08:52.210Z,17.2
2019-05-02T16:10:49.838Z,17.8
2019-05-02T16:12:49.865Z,17.8
2019-05-02T16:14:49.930Z,17.4
2019-05-02T16:16:52.257Z,17.3
2019-05-02T16:18:52.848Z,17.3
2019-05-02T16:21:05.307Z,17.8
2019-05-02T16:22:51.987Z,17.7
2019-05-02T16:24:53.248Z,18.3
2019-05-02T16:26:49.867Z,18.3
2019-05-02T16:28:51.676Z,17.8
2019-05-02T16:30:49.705Z,18.4
2019-05-02T16:32:49.832Z,19.6
2019-05-02T16:34:54.533Z,19.6
2019-05-02T16:36:51.887Z,18.8
2019-05-02T16:38:50.007Z,18.7
2019-05-02T16:40:52.193Z,20.4
2019-05-02T16:42:51.967Z,20.5
2019-05-02T16:44:54.964Z,20.5
2019-05-02T16:46:54.252Z,20.8
2019-05-02T16:48:49.606Z,21.8
2019-05-02T16:50:49.626Z,22.3
2019-05-02T16:52:49.728Z,21.7
2019-05-02T16:54:49.782Z,20.6
2019-05-02T16:56:51.789Z,20.6
2019-05-02T16:58:52.283Z,21.3
2019-05-02T17:00:50.312Z,20.2
2019-05-02T17:02:49.648Z,21.0
2019-05-02T17:04:54.834Z,18.9
2019-05-02T17:06:50.003Z,18.9
2019-05-02T17:08:58.621Z,19.2
2019-05-02T17:10:56.799Z,19.0
2019-05-02T17:12:57.028Z,19.6
2019-05-02T17:14:54.883Z,19.6
2019-05-02T17:16:55.911Z,18.7
2019-05-02T17:18:56.492Z,18.3
2019-05-02T17:20:56.899Z,18.8
2019-05-02T17:22:52.726Z,17.7
2019-05-02T17:24:50.393Z,17.7
2019-05-02T17:26:52.002Z,17.8
2019-05-02T17:28:52.168Z,17.6
2019-05-02T17:30:52.283Z,17.2
2019-05-02T17:32:49.559Z,17.2
2019-05-02T17:34:49.961Z,17.5
2019-05-02T17:36:52.019Z,17.4
2019-05-02T17:38:54.555Z,17.0
2019-05-02T17:40:54.527Z,17.0
2019-05-02T17:42:52.666Z,17.1
2019-05-02T17:44:57.590Z,17.1
2019-05-02T17:46:59.216Z,17.1
2019-05-02T17:48:53.883Z,16.1
2019-05-02T17:50:59.330Z,16.0
2019-05-02T17:52:50.269Z,16.0
2019-05-02T17:54:50.421Z,15.7
2019-05-02T17:56:57.330Z,15.8
2019-05-02T17:58:58.407Z,15.6
2019-05-02T18:00:56.150Z,15.6
2019-05-02T18:02:53.221Z,15.6
2019-05-02T18:04:55.768Z,15.9
2019-05-02T18:06:55.164Z,15.1
2019-05-02T18:08:55.413Z,14.4
2019-05-02T18:10:56.004Z,14.4
2019-05-02T18:12:59.939Z,14.4
2019-05-02T18:14:59.193Z,15.0
2019-05-02T18:16:55.528Z,15.0
2019-05-02T18:18:49.763Z,14.4
2019-05-02T18:20:49.970Z,14.4
2019-05-02T18:22:52.130Z,14.7
2019-05-02T18:24:50.237Z,14.7
2019-05-02T18:26:51.810Z,14.7
2019-05-02T18:28:49.814Z,14.2
2019-05-02T18:30:52.325Z,14.0
2019-05-02T18:32:49.855Z,14.0
2019-05-02T18:34:56.629Z,14.2
2019-05-02T18:36:52.531Z,14.2
2019-05-02T18:39:00.333Z,14.3
2019-05-02T18:40:49.578Z,14.3
2019-05-02T18:42:52.054Z,15.5
2019-05-02T18:44:54.544Z,15.5
2019-05-02T18:46:51.504Z,14.8
2019-05-02T18:48:52.022Z,14.8
2019-05-02T18:50:52.713Z,14.4
2019-05-02T18:52:49.830Z,14.4
2019-05-02T18:54:51.834Z,14.2
2019-05-02T18:56:55.446Z,14.7
2019-05-02T18:58:49.635Z,14.7
2019-05-02T19:00:52.138Z,14.7
2019-05-02T19:02:50.240Z,13.8
2019-05-02T19:04:51.796Z,13.4
2019-05-02T19:06:52.019Z,14.1
2019-05-02T19:08:52.426Z,15.1
2019-05-02T19:11:05.815Z,15.1
2019-05-02T19:12:50.278Z,14.2
2019-05-02T19:14:50.348Z,15.4
2019-05-02T19:16:52.209Z,14.7
2019-05-02T19:18:57.469Z,15.0
2019-05-02T19:20:57.645Z,15.0
2019-05-02T19:22:57.013Z,14.9
2019-05-02T19:24:52.452Z,14.8
2019-05-02T19:26:53.307Z,13.9
2019-05-02T19:28:52.493Z,14.6
2019-05-02T19:30:49.644Z,14.6
2019-05-02T19:32:50.062Z,13.9
2019-05-02T19:34:50.375Z,13.7
2019-05-02T19:36:49.709Z,14.0
2019-05-02T19:38:49.664Z,14.0
2019-05-02T19:40:49.760Z,14.1
2019-05-02T19:42:49.928Z,13.7
2019-05-02T19:44:50.360Z,14.7
2019-05-02T19:46:52.109Z,13.4
2019-05-02T19:48:50.171Z,13.4
2019-05-02T19:50:51.988Z,14.0
2019-05-02T19:53:01.824Z,14.3
2019-05-02T19:54:51.966Z,14.1
2019-05-02T19:56:52.574Z,14.1
2019-05-02T19:58:49.621Z,14.0
2019-05-02T20:00:49.959Z,13.8
2019-05-02T20:02:50.043Z,14.4
2019-05-02T20:04:49.519Z,13.6
2019-05-02T20:06:49.588Z,13.6
2019-05-02T20:08:55.893Z,13.6
2019-05-02T20:10:58.385Z,14.4
2019-05-02T20:12:52.729Z,14.3
2019-05-02T20:14:49.947Z,14.3
2019-05-02T20:16:50.112Z,13.9
2019-05-02T20:18:50.111Z,13.9
2019-05-02T20:20:52.143Z,13.8
2019-05-02T20:22:52.488Z,14.0
2019-05-02T20:25:00.064Z,14.0
2019-05-02T20:26:56.054Z,14.8
2019-05-02T20:28:50.259Z,14.8
2019-05-02T20:30:49.725Z,15.6
2019-05-02T20:32:51.879Z,14.8
2019-05-02T20:34:50.263Z,16.7
2019-05-02T20:36:51.991Z,16.1
2019-05-02T20:38:50.025Z,16.1
2019-05-02T20:40:52.370Z,14.7
2019-05-02T20:42:50.463Z,16.0
2019-05-02T20:44:49.910Z,16.4
2019-05-02T20:46:51.768Z,16.4
2019-05-02T20:48:49.831Z,16.8
2019-05-02T20:50:52.129Z,16.8
2019-05-02T20:52:52.159Z,17.0
2019-05-02T20:54:52.558Z,16.5
2019-05-02T20:56:52.126Z,16.5
2019-05-02T20:58:50.136Z,17.8
2019-05-02T21:01:06.008Z,17.4
2019-05-02T21:02:49.636Z,17.4
2019-05-02T21:04:52.345Z,19.0
2019-05-02T21:06:52.815Z,19.0
2019-05-02T21:08:49.844Z,19.9
2019-05-02T21:10:49.866Z,20.2
2019-05-02T21:12:50.022Z,20.4
2019-05-02T21:14:52.385Z,21.3
2019-05-02T21:16:49.637Z,21.3
2019-05-02T21:18:49.639Z,20.9
2019-05-02T21:20:49.896Z,20.9
2019-05-02T21:22:49.864Z,20.9
2019-05-02T21:24:49.866Z,21.7
2019-05-02T21:26:49.978Z,21.7
2019-05-02T21:28:52.292Z,22.6
2019-05-02T21:30:52.520Z,23.0
2019-05-02T21:32:49.619Z,23.2
2019-05-02T21:34:52.169Z,23.2
2019-05-02T21:36:52.049Z,24.1
2019-05-02T21:38:52.243Z,23.8
2019-05-02T21:40:50.312Z,23.8
2019-05-02T21:42:51.716Z,24.0
2019-05-02T21:44:51.934Z,24.3
2019-05-02T21:46:52.048Z,24.1
2019-05-02T21:48:50.132Z,24.5
2019-05-02T21:50:49.584Z,24.5
2019-05-02T21:52:50.226Z,26.3
2019-05-02T21:54:52.296Z,26.3
2019-05-02T21:56:49.619Z,24.5
2019-05-02T21:58:49.741Z,24.9
2019-05-02T22:00:49.846Z,25.2
2019-05-02T22:02:52.211Z,25.1
2019-05-02T22:04:49.768Z,25.1
2019-05-02T22:06:52.405Z,24.8
2019-05-02T22:08:49.512Z,24.7
2019-05-02T22:10:49.592Z,25.5
2019-05-02T22:12:51.807Z,23.3
2019-05-02T22:14:49.918Z,23.3
2019-05-02T22:16:50.264Z,24.2
2019-05-02T22:18:51.786Z,23.7
2019-05-02T22:20:52.427Z,22.1
2019-05-02T22:22:52.124Z,22.1
2019-05-02T22:24:50.274Z,22.4
2019-05-02T22:26:49.824Z,21.3
2019-05-02T22:28:49.828Z,22.3
2019-05-02T22:30:49.602Z,22.5
2019-05-02T22:32:54.310Z,22.5
2019-05-02T22:34:49.710Z,21.7
2019-05-02T22:36:49.683Z,22.5
2019-05-02T22:38:49.752Z,22.2
2019-05-02T22:40:49.856Z,22.2
2019-05-02T22:42:49.919Z,22.6
2019-05-02T22:44:50.230Z,22.3
2019-05-02T22:46:52.314Z,22.9
2019-05-02T22:48:49.526Z,22.5
2019-05-02T22:50:49.855Z,22.5
2019-05-02T22:52:52.322Z,21.8
2019-05-02T22:54:52.458Z,22.3
2019-05-02T22:56:51.537Z,21.9
2019-05-02T22:58:51.675Z,21.3
2019-05-02T23:00:49.696Z,21.3
2019-05-02T23:02:49.708Z,21.5
2019-05-02T23:04:52.831Z,22.0
2019-05-02T23:06:50.082Z,21.8
2019-05-02T23:08:52.044Z,21.8
2019-05-02T23:10:52.115Z,20.6
2019-05-02T23:12:51.859Z,21.4
2019-05-02T23:14:49.894Z,21.9
2019-05-02T23:16:50.046Z,21.4
2019-05-02T23:18:51.936Z,20.8
2019-05-02T23:20:50.178Z,20.8
2019-05-02T23:22:52.460Z,21.7
2019-05-02T23:24:49.658Z,21.7
2019-05-02T23:26:51.985Z,22.5
2019-05-02T23:28:51.857Z,21.5
2019-05-02T23:30:51.975Z,21.5
2019-05-02T23:32:51.831Z,22.1
2019-05-02T23:34:51.838Z,21.8
2019-05-02T23:36:49.708Z,22.2
2019-05-02T23:38:52.278Z,22.4
2019-05-02T23:40:50.258Z,22.4
2019-05-02T23:42:49.553Z,22.3
2019-05-02T23:44:49.664Z,21.9
2019-05-02T23:46:51.723Z,21.9
2019-05-02T23:48:49.864Z,22.0
2019-05-02T23:50:50.432Z,21.6
2019-05-02T23:52:50.149Z,21.7
2019-05-02T23:54:52.666Z,21.4
2019-05-02T23:56:49.948Z,22.1
2019-05-02T23:58:52.070Z,22.1
